Time;durP1;ratioP1;P1;durP2;ratioP2;P2;SDS_P1;SDS_P2;PMS_P1;PMS_P2;Temp;Humidity;BMP_temperature;BMP_pressure;BME280_temperature;BME280_humidity;BME280_pressure;Samples;Min_cycle;Max_cycle;Signal;HPM_P1;HPM_P2
2022/08/10 00:01:21;;;;;;;3.30;2.78;;;16.30;99.90;;;;;;5020421;28;20044;-60
2022/08/10 00:03:47;;;;;;;5.03;3.47;;;16.20;99.90;;;;;;5051127;28;20576;-60
2022/08/10 00:06:13;;;;;;;6.03;4.07;;;16.20;99.90;;;;;;5033927;28;20049;-60
2022/08/10 00:08:39;;;;;;;4.28;3.08;;;16.20;99.90;;;;;;5053349;28;20690;-60
2022/08/10 00:11:05;;;;;;;4.13;3.72;;;16.10;99.90;;;;;;5051679;28;20040;-60
2022/08/10 00:13:31;;;;;;;7.03;4.80;;;16.10;99.90;;;;;;5035147;28;20038;-60
2022/08/10 00:15:57;;;;;;;4.47;3.88;;;16.10;99.90;;;;;;5050820;28;20033;-60
2022/08/10 00:18:24;;;;;;;4.90;4.13;;;16.00;99.90;;;;;;5050186;28;20048;-60
2022/08/10 00:20:50;;;;;;;6.00;4.70;;;16.00;99.90;;;;;;5052198;28;20110;-59
2022/08/10 00:23:16;;;;;;;6.35;4.63;;;16.00;99.90;;;;;;5052119;28;20041;-60
2022/08/10 00:25:42;;;;;;;5.80;4.60;;;16.00;99.90;;;;;;5032355;28;20051;-62
2022/08/10 00:28:07;;;;;;;4.78;4.15;;;15.90;99.90;;;;;;5043443;28;20751;-60
2022/08/10 00:30:33;;;;;;;4.20;3.78;;;15.90;99.90;;;;;;5035039;28;20032;-60
2022/08/10 00:32:59;;;;;;;4.55;3.92;;;15.90;99.90;;;;;;5042074;28;21336;-60
2022/08/10 00:35:25;;;;;;;4.72;4.22;;;15.80;99.90;;;;;;5049033;28;20036;-60
2022/08/10 00:37:51;;;;;;;5.30;3.80;;;15.80;99.90;;;;;;5050480;28;20044;-60
2022/08/10 00:40:17;;;;;;;4.40;3.85;;;15.80;99.90;;;;;;5035784;28;20045;-60
2022/08/10 00:42:42;;;;;;;3.40;3.10;;;15.80;99.90;;;;;;5017575;28;20090;-59
2022/08/10 00:45:08;;;;;;;6.15;3.75;;;15.70;99.90;;;;;;5049859;28;20045;-60
2022/08/10 00:47:35;;;;;;;6.03;4.10;;;15.70;99.90;;;;;;5048841;28;20087;-60
2022/08/10 00:50:02;;;;;;;7.15;4.75;;;15.70;99.90;;;;;;5050466;28;20097;-60
2022/08/10 00:52:29;;;;;;;5.97;4.75;;;15.70;99.90;;;;;;5033665;28;20045;-60
2022/08/10 00:54:56;;;;;;;4.90;4.40;;;15.70;99.90;;;;;;5051321;28;20041;-59
2022/08/10 00:57:24;;;;;;;7.65;5.80;;;15.60;99.90;;;;;;5051137;28;20569;-60
2022/08/10 00:59:50;;;;;;;7.03;5.80;;;15.60;99.90;;;;;;5050602;28;20056;-60
2022/08/10 01:02:15;;;;;;;6.57;5.32;;;15.60;99.90;;;;;;5039215;28;20052;-60
2022/08/10 01:04:41;;;;;;;6.13;5.35;;;15.50;99.90;;;;;;5041244;28;20768;-60
2022/08/10 01:07:20;;;;;;;6.85;6.10;;;15.50;99.90;;;;;;5052518;28;20049;-61
2022/08/10 01:10:09;;;;;;;6.25;5.65;;;15.50;99.90;;;;;;5052336;28;20103;-60
2022/08/10 01:13:05;;;;;;;7.97;5.97;;;15.40;99.90;;;;;;5020999;28;20090;-60
2022/08/10 01:16:02;;;;;;;8.45;6.22;;;15.40;99.90;;;;;;5051617;28;20048;-60
2022/08/10 01:18:56;;;;;;;9.38;6.40;;;15.30;99.90;;;;;;5053277;28;20044;-60
2022/08/10 01:21:46;;;;;;;7.82;6.20;;;15.30;99.90;;;;;;5050961;28;20207;-60
2022/08/10 01:24:42;;;;;;;7.68;6.00;;;15.30;99.90;;;;;;5052011;28;20231;-60
2022/08/10 01:27:29;;;;;;;10.43;6.97;;;15.30;99.90;;;;;;5049143;28;20080;-60
2022/08/10 01:30:12;;;;;;;10.35;6.75;;;15.30;99.90;;;;;;5055215;28;20044;-58
2022/08/10 01:32:40;;;;;;;8.10;6.07;;;15.30;99.90;;;;;;5052206;28;20043;-58
2022/08/10 01:35:34;;;;;;;7.20;5.85;;;15.30;99.90;;;;;;5049944;28;20037;-59
2022/08/10 01:38:10;;;;;;;9.07;6.50;;;15.20;99.90;;;;;;5051666;28;20040;-59
2022/08/10 01:40:40;;;;;;;7.57;6.72;;;15.20;99.90;;;;;;5050478;28;20040;-59
2022/08/10 01:43:09;;;;;;;8.80;7.13;;;15.20;99.90;;;;;;5052901;28;20119;-60
2022/08/10 01:45:42;;;;;;;12.18;7.85;;;15.20;99.90;;;;;;5050027;28;20044;-60
2022/08/10 01:48:30;;;;;;;10.25;8.18;;;15.20;99.90;;;;;;5050107;28;20617;-58
2022/08/10 01:51:03;;;;;;;10.45;7.38;;;15.20;99.90;;;;;;5049232;28;20514;-60
2022/08/10 01:53:38;;;;;;;9.18;7.22;;;15.10;99.90;;;;;;5049467;28;20091;-60
2022/08/10 01:56:04;;;;;;;10.68;8.10;;;15.10;99.90;;;;;;5036128;28;20062;-59
2022/08/10 01:58:33;;;;;;;10.63;8.10;;;15.10;99.90;;;;;;5030735;28;20120;-59
2022/08/10 02:01:01;;;;;;;8.60;7.70;;;15.20;99.90;;;;;;5050678;28;20044;-59
2022/08/10 02:03:28;;;;;;;12.27;7.65;;;15.20;99.90;;;;;;5050693;28;20120;-60
2022/08/10 02:05:55;;;;;;;11.65;8.27;;;15.20;99.90;;;;;;5048176;28;20041;-59
2022/08/10 02:08:23;;;;;;;11.13;7.90;;;15.20;99.90;;;;;;5048277;28;20041;-60
2022/08/10 02:10:51;;;;;;;11.52;8.55;;;15.20;99.90;;;;;;5049561;28;20044;-60
2022/08/10 02:13:18;;;;;;;11.93;9.23;;;15.20;99.90;;;;;;5052197;28;20037;-60
2022/08/10 02:15:47;;;;;;;11.55;8.55;;;15.20;99.90;;;;;;5051201;28;20045;-59
2022/08/10 02:18:15;;;;;;;11.13;9.30;;;15.20;99.90;;;;;;5048145;28;20048;-58
2022/08/10 02:20:46;;;;;;;12.68;8.75;;;15.20;99.90;;;;;;5034041;28;20171;-58
2022/08/10 02:23:16;;;;;;;16.08;10.68;;;15.20;99.90;;;;;;5049877;28;20104;-59
2022/08/10 02:25:43;;;;;;;14.77;10.30;;;15.30;99.90;;;;;;5048741;28;20063;-59
2022/08/10 02:28:15;;;;;;;12.85;9.90;;;15.40;99.90;;;;;;5051824;28;20044;-60
2022/08/10 02:30:42;;;;;;;12.80;9.63;;;15.30;99.90;;;;;;5050641;28;20040;-59
2022/08/10 02:33:09;;;;;;;14.35;9.70;;;15.30;99.90;;;;;;5050236;28;20491;-59
2022/08/10 02:35:36;;;;;;;16.80;10.80;;;15.30;99.90;;;;;;5049321;28;20103;-60
2022/08/10 02:38:06;;;;;;;12.43;9.75;;;15.40;99.90;;;;;;5048634;28;20049;-58
2022/08/10 02:40:36;;;;;;;13.55;9.95;;;15.40;99.90;;;;;;5051459;28;20051;-59
2022/08/10 02:43:20;;;;;;;14.57;9.38;;;15.40;99.90;;;;;;5032609;28;20056;-60
2022/08/10 02:45:51;;;;;;;12.85;9.82;;;15.40;99.90;;;;;;5050212;28;20149;-59
2022/08/10 02:48:44;;;;;;;14.73;9.10;;;15.30;99.90;;;;;;5035879;28;20087;-59
2022/08/10 02:51:18;;;;;;;13.13;9.65;;;15.30;99.90;;;;;;5022423;28;20044;-60
2022/08/10 02:53:47;;;;;;;11.85;9.63;;;15.30;99.90;;;;;;5050176;28;20388;-60
2022/08/10 02:56:34;;;;;;;12.00;9.45;;;15.30;99.90;;;;;;5051977;28;20583;-59
2022/08/10 02:59:08;;;;;;;16.30;9.27;;;15.30;99.90;;;;;;5049915;28;20067;-59
2022/08/10 03:01:42;;;;;;;14.50;9.52;;;15.20;99.90;;;;;;5049072;28;20117;-60
2022/08/10 03:04:15;;;;;;;13.73;9.40;;;15.30;99.90;;;;;;5049468;28;20150;-59
2022/08/10 03:06:47;;;;;;;11.38;9.25;;;15.20;99.90;;;;;;5048569;28;20538;-59
2022/08/10 03:09:15;;;;;;;12.32;8.77;;;15.20;99.90;;;;;;5032593;28;20041;-59
2022/08/10 03:11:43;;;;;;;13.00;8.70;;;15.20;99.90;;;;;;5052308;28;20079;-59
2022/08/10 03:14:10;;;;;;;11.85;8.75;;;15.10;99.90;;;;;;5051454;28;20041;-60
2022/08/10 03:16:37;;;;;;;12.05;8.13;;;15.10;99.90;;;;;;5052907;28;20102;-59
2022/08/10 03:19:06;;;;;;;11.77;8.90;;;15.10;99.90;;;;;;5052571;28;20051;-59
2022/08/10 03:21:34;;;;;;;11.10;8.23;;;15.10;99.90;;;;;;5052532;28;20036;-59
2022/08/10 03:24:01;;;;;;;14.00;9.10;;;15.10;99.90;;;;;;5037883;28;20494;-60
2022/08/10 03:26:31;;;;;;;12.85;7.80;;;15.10;99.90;;;;;;5051688;28;20049;-59
2022/08/10 03:29:02;;;;;;;11.15;7.20;;;15.00;99.90;;;;;;5054940;28;20592;-59
2022/08/10 03:31:29;;;;;;;11.05;9.25;;;15.00;99.90;;;;;;5036737;28;20033;-59
2022/08/10 03:33:55;;;;;;;12.43;8.57;;;15.00;99.90;;;;;;5033619;28;20097;-60
2022/08/10 03:36:22;;;;;;;12.45;8.23;;;15.00;99.90;;;;;;5050862;28;20083;-59
2022/08/10 03:38:50;;;;;;;9.38;7.97;;;15.00;99.90;;;;;;5050423;28;20255;-59
2022/08/10 03:41:21;;;;;;;10.75;8.55;;;15.00;99.90;;;;;;5034553;28;20506;-59
2022/08/10 03:43:48;;;;;;;12.10;9.18;;;15.00;99.90;;;;;;5051705;28;20049;-60
2022/08/10 03:46:18;;;;;;;10.13;8.60;;;15.00;99.90;;;;;;5053129;28;20509;-59
2022/08/10 03:48:46;;;;;;;15.05;8.73;;;14.90;99.90;;;;;;5051394;28;20175;-60
2022/08/10 03:51:13;;;;;;;16.38;9.65;;;14.90;99.90;;;;;;5034167;28;20472;-59
2022/08/10 03:53:40;;;;;;;13.38;8.32;;;14.90;99.90;;;;;;5051140;28;20458;-59
2022/08/10 03:56:07;;;;;;;14.32;9.25;;;14.90;99.90;;;;;;5032958;28;20106;-59
2022/08/10 03:58:33;;;;;;;12.18;8.63;;;14.90;99.90;;;;;;5049975;28;20467;-60
2022/08/10 04:00:59;;;;;;;13.35;8.80;;;14.90;99.90;;;;;;5036489;28;20052;-59
2022/08/10 04:03:25;;;;;;;14.52;9.43;;;14.90;99.90;;;;;;5034623;28;20063;-59
2022/08/10 04:05:52;;;;;;;12.75;9.27;;;14.90;99.90;;;;;;5050661;28;20037;-59
2022/08/10 04:08:18;;;;;;;12.77;9.15;;;14.90;99.90;;;;;;5052850;28;20040;-59
2022/08/10 04:10:43;;;;;;;14.70;9.55;;;14.90;99.90;;;;;;5053105;28;20521;-59
2022/08/10 04:13:09;;;;;;;11.30;8.38;;;14.90;99.90;;;;;;5010193;28;20091;-60
2022/08/10 04:15:35;;;;;;;10.48;7.88;;;14.90;99.90;;;;;;5042778;28;20040;-59
2022/08/10 04:18:01;;;;;;;9.95;8.38;;;14.90;99.90;;;;;;5051572;28;20040;-59
2022/08/10 04:20:35;;;;;;;10.93;8.45;;;14.90;99.90;;;;;;5051241;28;20524;-59
2022/08/10 04:23:08;;;;;;;10.65;7.88;;;14.90;99.90;;;;;;5033887;28;20051;-59
2022/08/10 04:25:37;;;;;;;9.32;7.72;;;14.90;99.90;;;;;;5051597;28;20454;-60
2022/08/10 04:28:03;;;;;;;9.50;7.85;;;14.90;99.90;;;;;;5052182;28;20040;-60
2022/08/10 04:30:30;;;;;;;10.55;8.07;;;14.90;99.90;;;;;;5050239;28;20044;-59
2022/08/10 04:32:59;;;;;;;12.43;8.77;;;14.90;99.90;;;;;;5042540;28;20048;-59
2022/08/10 04:35:28;;;;;;;12.38;8.23;;;14.90;99.90;;;;;;5043371;28;20037;-60
2022/08/10 04:37:55;;;;;;;14.70;9.00;;;14.90;99.90;;;;;;5050025;28;20040;-59
2022/08/10 04:40:22;;;;;;;11.20;8.10;;;14.90;99.90;;;;;;5051118;28;20641;-59
2022/08/10 04:42:48;;;;;;;9.63;8.20;;;14.90;99.90;;;;;;5051147;28;20066;-59
2022/08/10 04:45:14;;;;;;;9.15;7.45;;;14.90;99.90;;;;;;5033184;28;20044;-59
2022/08/10 04:47:40;;;;;;;12.23;7.47;;;15.00;99.90;;;;;;5050804;28;20049;-59
2022/08/10 04:50:06;;;;;;;9.93;7.55;;;15.00;99.90;;;;;;5034213;28;20044;-59
2022/08/10 04:52:32;;;;;;;12.02;8.35;;;15.00;99.90;;;;;;5033535;28;20040;-58
2022/08/10 04:54:59;;;;;;;9.60;7.97;;;15.00;99.90;;;;;;5049322;28;20044;-60
2022/08/10 04:57:24;;;;;;;11.25;8.02;;;15.00;99.90;;;;;;5049229;28;20049;-58
2022/08/10 04:59:50;;;;;;;12.00;8.70;;;15.10;99.90;;;;;;5026469;28;20052;-59
2022/08/10 05:02:16;;;;;;;11.50;8.73;;;15.10;99.90;;;;;;5051425;28;20048;-60
2022/08/10 05:04:42;;;;;;;13.43;8.35;;;15.20;99.90;;;;;;5050829;28;20526;-59
2022/08/10 05:07:13;;;;;;;12.35;9.32;;;15.20;99.90;;;;;;5032040;28;20064;-60
2022/08/10 05:09:40;;;;;;;14.85;10.05;;;15.30;99.90;;;;;;5051143;28;20139;-60
2022/08/10 05:12:07;;;;;;;16.83;9.50;;;15.30;99.90;;;;;;5031633;28;20044;-60
2022/08/10 05:14:33;;;;;;;14.38;9.45;;;15.30;99.90;;;;;;5051833;28;20040;-60
2022/08/10 05:16:59;;;;;;;15.60;9.40;;;15.40;99.90;;;;;;5049407;28;20079;-59
2022/08/10 05:19:25;;;;;;;13.00;9.35;;;15.40;99.90;;;;;;5049453;28;20084;-60
2022/08/10 05:21:51;;;;;;;14.15;9.55;;;15.40;99.90;;;;;;5033025;28;20651;-60
2022/08/10 05:24:17;;;;;;;11.15;9.18;;;15.50;99.90;;;;;;5051738;28;20087;-60
2022/08/10 05:26:43;;;;;;;14.98;9.75;;;15.60;99.90;;;;;;5040455;28;20119;-58
2022/08/10 05:29:09;;;;;;;15.43;9.73;;;15.60;99.90;;;;;;5033734;28;20162;-57
2022/08/10 05:31:35;;;;;;;14.07;9.95;;;15.60;99.90;;;;;;5050870;28;20122;-59
2022/08/10 05:34:01;;;;;;;13.95;9.02;;;15.60;99.90;;;;;;5050546;28;20052;-60
2022/08/10 05:36:27;;;;;;;13.55;9.85;;;15.70;99.90;;;;;;5051128;28;20060;-59
2022/08/10 05:38:54;;;;;;;12.07;8.98;;;15.70;99.90;;;;;;5051385;28;20155;-60
2022/08/10 05:41:19;;;;;;;16.25;10.20;;;15.80;99.90;;;;;;5050996;28;20076;-60
2022/08/10 05:43:46;;;;;;;15.52;9.68;;;15.80;99.90;;;;;;5050991;28;20440;-59
2022/08/10 05:46:12;;;;;;;17.40;9.35;;;15.90;99.90;;;;;;5032121;28;20045;-60
2022/08/10 05:48:39;;;;;;;11.40;9.02;;;15.90;99.90;;;;;;5036494;28;20078;-60
2022/08/10 05:51:05;;;;;;;14.93;9.52;;;16.00;99.90;;;;;;5041550;28;20073;-60
2022/08/10 05:53:33;;;;;;;13.10;9.77;;;16.10;99.90;;;;;;5051012;28;20072;-60
2022/08/10 05:56:01;;;;;;;15.05;9.50;;;16.10;99.90;;;;;;5047684;28;20364;-60
2022/08/10 05:58:27;;;;;;;17.63;10.02;;;16.20;99.90;;;;;;5051673;28;20503;-60
2022/08/10 06:00:56;;;;;;;15.82;10.20;;;16.30;99.90;;;;;;5032778;28;20044;-60
2022/08/10 06:03:32;;;;;;;18.13;9.63;;;16.30;99.90;;;;;;5050233;28;20056;-60
2022/08/10 06:06:01;;;;;;;19.13;10.20;;;16.40;99.90;;;;;;5049266;28;20040;-60
2022/08/10 06:08:31;;;;;;;17.48;10.48;;;16.50;99.90;;;;;;5050041;28;20044;-60
2022/08/10 06:11:00;;;;;;;17.05;10.30;;;16.50;99.90;;;;;;5050352;28;20037;-60
2022/08/10 06:16:14;;;;;;;16.52;10.00;;;16.70;99.90;;;;;;5048088;28;20044;-60
2022/08/10 06:18:42;;;;;;;14.02;9.90;;;16.80;99.90;;;;;;5050823;28;20045;-60
2022/08/10 06:21:12;;;;;;;16.42;10.05;;;16.90;99.90;;;;;;5022933;28;20123;-60
2022/08/10 06:23:38;;;;;;;15.30;9.85;;;17.00;99.90;;;;;;5030234;28;20044;-60
2022/08/10 06:26:06;;;;;;;13.27;9.38;;;17.10;99.90;;;;;;5049414;28;20475;-61
2022/08/10 06:28:38;;;;;;;11.77;8.70;;;17.20;99.90;;;;;;5034536;28;20064;-60
2022/08/10 06:31:05;;;;;;;15.40;9.98;;;17.30;99.90;;;;;;5052216;28;20049;-60
2022/08/10 06:33:34;;;;;;;13.45;10.05;;;17.40;99.90;;;;;;5014218;28;20057;-61
2022/08/10 06:36:02;;;;;;;16.15;8.88;;;17.50;99.90;;;;;;5047345;28;20041;-60
2022/08/10 06:38:31;;;;;;;13.02;8.57;;;17.60;99.90;;;;;;5050546;28;20121;-60
2022/08/10 06:41:00;;;;;;;15.43;8.85;;;17.80;99.90;;;;;;5053432;28;20040;-61
2022/08/10 06:43:29;;;;;;;11.27;7.10;;;17.90;99.90;;;;;;5050568;28;20517;-61
2022/08/10 06:46:01;;;;;;;13.13;7.85;;;18.00;99.90;;;;;;5040252;28;20101;-61
2022/08/10 06:48:31;;;;;;;10.02;7.22;;;18.10;99.90;;;;;;5035783;28;20496;-61
2022/08/10 06:51:00;;;;;;;10.75;6.32;;;18.20;99.90;;;;;;5049922;28;20049;-60
2022/08/10 06:53:40;;;;;;;9.55;6.57;;;18.30;99.90;;;;;;5053387;28;20044;-61
2022/08/10 06:56:13;;;;;;;9.43;5.80;;;18.50;99.90;;;;;;5053329;28;20550;-60
2022/08/10 06:59:12;;;;;;;7.45;5.53;;;18.50;99.90;;;;;;5053345;28;20037;-61
2022/08/10 07:01:40;;;;;;;7.72;5.32;;;18.60;99.90;;;;;;5021905;28;20048;-60
2022/08/10 07:04:14;;;;;;;8.07;5.10;;;18.80;99.90;;;;;;5053954;28;20037;-60
2022/08/10 07:06:44;;;;;;;6.68;4.95;;;18.90;99.90;;;;;;5052760;28;20555;-60
2022/08/10 07:09:11;;;;;;;6.88;4.80;;;19.00;99.90;;;;;;5053322;28;20044;-60
2022/08/10 07:11:39;;;;;;;11.45;4.85;;;19.10;99.90;;;;;;5036285;28;20036;-60
2022/08/10 07:14:07;;;;;;;6.38;4.80;;;19.20;99.90;;;;;;5023765;28;20047;-60
2022/08/10 07:16:34;;;;;;;6.90;5.03;;;19.20;99.90;;;;;;5035594;28;20602;-60
2022/08/10 07:19:01;;;;;;;7.07;4.40;;;19.40;99.90;;;;;;5031700;28;20590;-60
2022/08/10 07:21:29;;;;;;;5.13;3.80;;;19.40;99.90;;;;;;5052100;28;20052;-61
2022/08/10 07:23:56;;;;;;;9.13;3.80;;;19.50;99.90;;;;;;5048645;28;20066;-61
2022/08/10 07:26:24;;;;;;;6.93;4.20;;;19.60;99.90;;;;;;5051101;28;20442;-61
2022/08/10 07:28:51;;;;;;;4.85;3.92;;;19.70;99.90;;;;;;5037213;28;20040;-61
2022/08/10 07:31:21;;;;;;;9.68;3.92;;;19.80;99.90;;;;;;5052234;28;20222;-61
2022/08/10 07:33:53;;;;;;;8.57;3.72;;;19.90;99.90;;;;;;5051288;28;20075;-61
2022/08/10 07:36:22;;;;;;;4.78;3.60;;;20.00;99.90;;;;;;5050064;28;20785;-59
2022/08/10 07:38:52;;;;;;;7.32;4.03;;;20.10;99.90;;;;;;5033811;28;20054;-61
2022/08/10 07:41:20;;;;;;;5.63;4.15;;;20.20;99.90;;;;;;5053605;28;20072;-61
2022/08/10 07:43:49;;;;;;;4.32;3.53;;;20.30;99.90;;;;;;5054080;28;20044;-61
2022/08/10 07:46:18;;;;;;;5.75;3.40;;;20.40;99.90;;;;;;5017288;28;20041;-61
2022/08/10 07:49:00;;;;;;;7.68;3.20;;;20.50;99.90;;;;;;5035884;28;20152;-60
2022/08/10 07:51:27;;;;;;;8.18;3.70;;;20.60;99.90;;;;;;5049545;28;20052;-60
2022/08/10 07:53:55;;;;;;;4.38;3.00;;;20.70;99.90;;;;;;5052196;28;20045;-61
2022/08/10 07:56:25;;;;;;;5.78;3.25;;;20.80;99.90;;;;;;5049776;28;20037;-61
2022/08/10 07:59:06;;;;;;;6.45;3.15;;;21.00;99.90;;;;;;5034474;28;20041;-61
2022/08/10 08:01:38;;;;;;;7.65;3.42;;;21.00;99.90;;;;;;5052098;28;20487;-60
2022/08/10 08:04:05;;;;;;;7.05;3.15;;;21.10;99.90;;;;;;5036213;28;20048;-61
2022/08/10 08:06:35;;;;;;;4.57;3.05;;;21.20;99.90;;;;;;5050835;28;20040;-62
2022/08/10 08:09:03;;;;;;;7.75;2.75;;;21.30;99.90;;;;;;5018794;28;20101;-61
2022/08/10 08:11:30;;;;;;;4.93;2.33;;;21.40;99.90;;;;;;5053746;28;20053;-61
2022/08/10 08:13:59;;;;;;;6.97;2.83;;;21.60;99.90;;;;;;5037114;28;20045;-61
2022/08/10 08:16:25;;;;;;;5.63;2.63;;;21.70;99.90;;;;;;5044240;28;20103;-61
2022/08/10 08:18:54;;;;;;;6.88;2.55;;;21.70;99.90;;;;;;5052408;28;20037;-61
2022/08/10 08:21:21;;;;;;;9.05;2.90;;;21.80;99.90;;;;;;5049657;28;20506;-61
2022/08/10 08:23:49;;;;;;;5.40;2.40;;;21.90;99.90;;;;;;5020920;28;20048;-62
2022/08/10 08:26:17;;;;;;;4.88;2.67;;;22.00;99.90;;;;;;5043825;28;20048;-61
2022/08/10 08:28:44;;;;;;;5.05;2.50;;;22.10;99.90;;;;;;5047306;28;20048;-60
2022/08/10 08:31:13;;;;;;;6.65;2.35;;;22.20;99.90;;;;;;5031765;28;20175;-62
2022/08/10 08:33:40;;;;;;;10.50;2.47;;;22.30;99.90;;;;;;5032147;28;20048;-61
2022/08/10 08:36:07;;;;;;;6.25;2.50;;;22.50;99.90;;;;;;5047297;28;20072;-61
2022/08/10 08:38:35;;;;;;;7.38;2.50;;;22.50;99.90;;;;;;5033598;28;20308;-62
2022/08/10 08:41:19;;;;;;;7.72;2.13;;;22.60;99.90;;;;;;5052612;28;20126;-62
2022/08/10 08:44:16;;;;;;;5.47;2.33;;;22.70;99.90;;;;;;5042818;28;20374;-61
2022/08/10 08:46:51;;;;;;;4.82;2.00;;;22.80;99.40;;;;;;5051880;28;20502;-62
2022/08/10 08:49:47;;;;;;;6.65;2.20;;;22.90;99.70;;;;;;5051957;28;20053;-61
2022/08/10 08:52:34;;;;;;;4.20;2.22;;;23.10;99.50;;;;;;5049216;28;20164;-62
2022/08/10 08:55:27;;;;;;;5.30;2.17;;;23.20;99.10;;;;;;5051418;28;20040;-61
2022/08/10 08:58:17;;;;;;;6.05;2.03;;;23.30;98.70;;;;;;5053080;28;20052;-62
2022/08/10 09:01:24;;;;;;;5.22;1.90;;;23.40;98.30;;;;;;5053244;28;20045;-61
2022/08/10 09:03:58;;;;;;;3.92;1.88;;;23.50;97.90;;;;;;5031939;28;20057;-62
2022/08/10 09:06:44;;;;;;;6.35;2.28;;;23.70;97.80;;;;;;5031547;28;20502;-61
2022/08/10 09:09:53;;;;;;;6.47;2.20;;;23.70;97.20;;;;;;5049809;28;20094;-62
2022/08/10 09:12:43;;;;;;;6.53;2.25;;;23.80;97.40;;;;;;5033848;28;20040;-62
2022/08/10 09:15:47;;;;;;;6.13;2.38;;;24.00;96.80;;;;;;5050886;28;20094;-62
2022/08/10 09:18:39;;;;;;;3.50;2.10;;;24.10;96.00;;;;;;5051977;28;20383;-62
2022/08/10 09:21:14;;;;;;;4.40;2.53;;;24.20;95.90;;;;;;5050612;28;20041;-62
2022/08/10 09:23:51;;;;;;;4.43;2.22;;;24.30;95.50;;;;;;5048523;28;20048;-62
2022/08/10 09:26:24;;;;;;;6.43;2.20;;;24.40;95.30;;;;;;5051185;28;20135;-62
2022/08/10 09:28:55;;;;;;;3.75;2.13;;;24.50;95.60;;;;;;5036024;28;20156;-62
2022/08/10 09:31:23;;;;;;;5.38;2.15;;;24.70;95.50;;;;;;5035368;28;20124;-62
2022/08/10 09:34:06;;;;;;;5.30;2.50;;;24.80;94.90;;;;;;5047848;28;20044;-62
2022/08/10 09:36:59;;;;;;;5.18;2.38;;;25.00;94.60;;;;;;5049124;28;20061;-62
2022/08/10 09:39:36;;;;;;;;;;;25.10;93.80;;;;;;5035052;28;20047;-62
2022/08/10 09:42:17;;;;;;;9.80;2.42;;;25.20;94.60;;;;;;5054387;28;20015;-62
2022/08/10 09:45:13;;;;;;;3.67;2.00;;;25.30;93.70;;;;;;5048721;28;20040;-62
2022/08/10 09:48:09;;;;;;;4.55;2.30;;;25.50;93.40;;;;;;5047295;28;20510;-62
2022/08/10 09:51:01;;;;;;;4.55;2.30;;;25.70;92.90;;;;;;5049278;28;20051;-62
2022/08/10 09:53:44;;;;;;;4.45;2.10;;;25.80;92.10;;;;;;5034523;28;20052;-62
2022/08/10 09:56:28;;;;;;;5.13;2.40;;;25.80;91.00;;;;;;5053761;28;20147;-62
2022/08/10 09:59:09;;;;;;;5.25;1.95;;;25.90;90.60;;;;;;5050306;28;20045;-62
2022/08/10 10:01:53;;;;;;;6.65;2.20;;;26.00;90.10;;;;;;5026273;28;20434;-63
2022/08/10 10:04:31;;;;;;;4.85;1.90;;;26.00;89.10;;;;;;5051124;28;20106;-62
2022/08/10 10:07:00;;;;;;;4.80;2.03;;;26.20;89.70;;;;;;5033389;28;20049;-62
2022/08/10 10:10:00;;;;;;;5.65;1.83;;;26.40;90.10;;;;;;5041292;28;20045;-62
2022/08/10 10:12:38;;;;;;;5.07;1.90;;;26.60;86.80;;;;;;5049349;28;20055;-62
2022/08/10 10:15:52;;;;;;;2.90;2.03;;;26.70;86.30;;;;;;5049516;28;20079;-62
2022/08/10 10:18:54;;;;;;;3.35;1.77;;;26.70;85.60;;;;;;5043838;28;20045;-62
2022/08/10 10:21:27;;;;;;;8.02;2.40;;;26.80;85.10;;;;;;5036069;28;20055;-62
2022/08/10 10:24:26;;;;;;;4.15;1.85;;;26.80;83.60;;;;;;5036571;28;20056;-62
2022/08/10 10:27:14;;;;;;;4.15;2.13;;;26.90;82.80;;;;;;5037187;28;20123;-62
2022/08/10 10:29:46;;;;;;;6.68;2.10;;;26.90;83.30;;;;;;5035421;28;20051;-62
2022/08/10 10:33:01;;;;;;;2.58;1.85;;;27.20;84.30;;;;;;5056456;28;20483;-62
2022/08/10 10:35:49;;;;;;;2.58;1.73;;;27.40;82.60;;;;;;4972207;28;20109;-62
2022/08/10 10:38:17;;;;;;;5.22;1.58;;;27.40;82.20;;;;;;4984234;28;20050;-62
2022/08/10 10:40:54;;;;;;;3.92;1.70;;;27.60;80.00;;;;;;4995373;28;20076;-62
2022/08/10 10:43:38;;;;;;;4.43;1.77;;;27.70;79.10;;;;;;5054606;28;20106;-63
2022/08/10 10:46:40;;;;;;;4.68;1.65;;;27.80;78.10;;;;;;5053799;28;20442;-62
2022/08/10 10:49:22;;;;;;;2.38;1.60;;;28.00;78.10;;;;;;5051193;28;20056;-63
2022/08/10 10:52:16;;;;;;;4.32;1.55;;;28.10;76.60;;;;;;5051538;28;20433;-62
2022/08/10 10:55:09;;;;;;;6.82;1.80;;;28.10;75.00;;;;;;5054311;28;20045;-62
2022/08/10 10:57:58;;;;;;;3.50;1.80;;;28.20;74.70;;;;;;5034796;28;20513;-62
2022/08/10 11:00:28;;;;;;;3.45;1.58;;;28.20;74.00;;;;;;5054811;28;21455;-63
2022/08/10 11:02:57;;;;;;;3.17;1.40;;;28.30;73.30;;;;;;5038588;28;20459;-63
2022/08/10 11:05:46;;;;;;;3.58;1.40;;;28.40;72.90;;;;;;5054046;28;20444;-63
2022/08/10 11:08:30;;;;;;;4.38;1.23;;;28.50;73.50;;;;;;5035549;28;20052;-63
2022/08/10 11:11:22;;;;;;;4.30;1.33;;;28.70;70.90;;;;;;5037588;28;20037;-63
2022/08/10 11:14:17;;;;;;;4.53;1.40;;;28.70;70.00;;;;;;5053230;28;20502;-63
2022/08/10 11:16:55;;;;;;;3.60;1.60;;;28.80;70.00;;;;;;5034653;28;20053;-62
2022/08/10 11:19:43;;;;;;;2.10;1.30;;;28.90;68.00;;;;;;5032272;28;20045;-63
2022/08/10 11:22:29;;;;;;;2.45;1.15;;;28.90;67.00;;;;;;5053129;28;20372;-62
2022/08/10 11:25:18;;;;;;;2.50;1.30;;;28.90;66.50;;;;;;5032958;28;20056;-63
2022/08/10 11:28:23;;;;;;;4.97;1.65;;;29.10;66.30;;;;;;5050827;28;20470;-63
2022/08/10 11:31:13;;;;;;;4.05;1.10;;;29.10;65.50;;;;;;5051671;28;20043;-63
2022/08/10 11:33:57;;;;;;;1.05;0.85;;;29.20;65.60;;;;;;5054432;28;20513;-63
2022/08/10 11:36:38;;;;;;;4.57;1.15;;;29.30;64.80;;;;;;5050897;28;20550;-62
2022/08/10 11:39:13;;;;;;;2.80;0.82;;;29.30;63.50;;;;;;5054378;28;20071;-63
2022/08/10 11:41:45;;;;;;;1.73;1.08;;;29.50;62.80;;;;;;5022512;28;20170;-63
2022/08/10 11:45:04;;;;;;;4.38;1.17;;;29.70;63.70;;;;;;5034737;28;20064;-63
2022/08/10 11:47:36;;;;;;;3.72;1.10;;;29.80;61.90;;;;;;4975946;28;20117;-63
2022/08/10 11:50:02;;;;;;;;;;;29.90;62.30;;;;;;4977245;28;20057;-63
2022/08/10 11:52:33;;;;;;;4.57;1.02;;;30.00;63.30;;;;;;5011788;28;20342;-63
2022/08/10 11:55:09;;;;;;;3.17;1.23;;;30.10;62.70;;;;;;5053483;28;20056;-63
2022/08/10 11:57:36;;;;;;;4.93;1.20;;;30.30;61.90;;;;;;5052041;28;20616;-62
2022/08/10 12:00:07;;;;;;;4.20;1.30;;;30.30;60.80;;;;;;5053997;28;20506;-63
2022/08/10 12:02:39;;;;;;;3.92;1.10;;;30.20;59.80;;;;;;5033925;28;20044;-63
2022/08/10 12:05:16;;;;;;;2.47;1.00;;;30.30;60.00;;;;;;5036635;28;20204;-63
2022/08/10 12:07:48;;;;;;;3.40;0.90;;;30.40;60.90;;;;;;5035108;28;20128;-63
2022/08/10 12:10:14;;;;;;;2.33;1.05;;;30.50;59.00;;;;;;5036085;28;20530;-63
2022/08/10 12:12:58;;;;;;;3.22;1.25;;;30.60;58.40;;;;;;5051210;28;20453;-63
2022/08/10 12:15:33;;;;;;;2.17;1.20;;;30.60;58.30;;;;;;5051596;28;20083;-63
2022/08/10 12:18:11;;;;;;;3.88;1.33;;;30.60;58.20;;;;;;5017772;28;20077;-63
2022/08/10 12:20:40;;;;;;;2.47;1.00;;;30.80;57.70;;;;;;5051916;28;20642;-63
2022/08/10 12:23:25;;;;;;;3.47;1.00;;;31.00;58.20;;;;;;5034922;28;20041;-62
2022/08/10 12:26:20;;;;;;;5.80;1.20;;;31.20;58.80;;;;;;5051348;28;20091;-63
2022/08/10 12:29:30;;;;;;;5.90;1.10;;;31.40;57.50;;;;;;5032655;28;20106;-63
2022/08/10 12:32:10;;;;;;;1.70;1.30;;;31.40;57.20;;;;;;4975260;28;20156;-63
2022/08/10 12:34:54;;;;;;;4.53;1.17;;;31.40;56.60;;;;;;5048781;28;20052;-62
2022/08/10 12:37:25;;;;;;;2.45;1.27;;;31.40;56.40;;;;;;5052112;28;20047;-63
2022/08/10 12:40:20;;;;;;;3.47;1.30;;;31.30;56.10;;;;;;5049951;28;20045;-63
2022/08/10 12:43:04;;;;;;;3.25;1.45;;;31.20;56.50;;;;;;5049768;28;20848;-64
2022/08/10 12:45:55;;;;;;;3.22;1.10;;;31.30;57.30;;;;;;5051545;28;20040;-63
2022/08/10 12:48:40;;;;;;;5.28;1.30;;;31.30;56.90;;;;;;5050288;28;20049;-63
2022/08/10 12:51:13;;;;;;;2.83;1.20;;;31.40;57.80;;;;;;5049789;28;20115;-64
2022/08/10 12:53:51;;;;;;;1.40;1.08;;;31.60;57.20;;;;;;5052279;28;20032;-62
2022/08/10 12:56:30;;;;;;;6.07;1.23;;;31.70;57.30;;;;;;5051135;28;20482;-63
2022/08/10 12:58:57;;;;;;;10.18;1.33;;;31.80;56.70;;;;;;5050938;28;20072;-63
2022/08/10 13:01:28;;;;;;;5.28;1.15;;;31.70;56.20;;;;;;5051214;28;20079;-63
2022/08/10 13:03:57;;;;;;;4.40;1.20;;;31.80;57.00;;;;;;5049294;28;20040;-64
2022/08/10 13:06:25;;;;;;;4.55;1.25;;;31.90;56.10;;;;;;5031268;28;20040;-63
2022/08/10 13:09:07;;;;;;;2.78;1.05;;;32.00;55.50;;;;;;5052516;28;20106;-62
2022/08/10 13:11:38;;;;;;;5.30;1.17;;;32.00;54.80;;;;;;5029741;28;20063;-63
2022/08/10 13:14:20;;;;;;;5.15;0.90;;;32.20;55.20;;;;;;5050393;28;20048;-62
2022/08/10 13:16:46;;;;;;;;;;;32.30;53.80;;;;;;5033123;28;20055;-63
2022/08/10 13:19:15;;;;;;;2.72;1.00;;;32.20;55.20;;;;;;5049944;28;19927;-63
2022/08/10 13:21:42;;;;;;;4.20;1.27;;;32.10;54.40;;;;;;5050487;28;20052;-63